sensor_id;sensor_type;location;lat;lon;timestamp;P1;durP1;ratioP1;P2;durP2;ratioP2
48613;SDS011;34408;51.426;5.444;2023-05-10T00:02:13;5.22;;;3.90;;
48613;SDS011;34408;51.426;5.444;2023-05-10T00:04:41;5.13;;;3.70;;
48613;SDS011;34408;51.426;5.444;2023-05-10T00:07:09;4.80;;;3.53;;
48613;SDS011;34408;51.426;5.444;2023-05-10T00:09:37;6.53;;;3.95;;
48613;SDS011;34408;51.426;5.444;2023-05-10T00:12:06;5.40;;;4.05;;
48613;SDS011;34408;51.426;5.444;2023-05-10T00:14:34;5.40;;;4.25;;
48613;SDS011;34408;51.426;5.444;2023-05-10T00:17:03;6.53;;;4.65;;
48613;SDS011;34408;51.426;5.444;2023-05-10T00:19:31;7.57;;;4.97;;
48613;SDS011;34408;51.426;5.444;2023-05-10T00:21:59;6.72;;;4.25;;
48613;SDS011;34408;51.426;5.444;2023-05-10T00:24:27;7.18;;;5.53;;
48613;SDS011;34408;51.426;5.444;2023-05-10T00:26:55;7.63;;;5.32;;
48613;SDS011;34408;51.426;5.444;2023-05-10T00:29:23;6.80;;;5.43;;
48613;SDS011;34408;51.426;5.444;2023-05-10T00:31:51;7.43;;;5.60;;
48613;SDS011;34408;51.426;5.444;2023-05-10T00:34:20;7.00;;;5.28;;
48613;SDS011;34408;51.426;5.444;2023-05-10T00:36:48;6.47;;;5.32;;
48613;SDS011;34408;51.426;5.444;2023-05-10T00:39:16;7.63;;;5.95;;
48613;SDS011;34408;51.426;5.444;2023-05-10T00:41:44;9.13;;;6.25;;
48613;SDS011;34408;51.426;5.444;2023-05-10T00:44:12;9.23;;;6.85;;
48613;SDS011;34408;51.426;5.444;2023-05-10T00:46:39;10.55;;;7.05;;
48613;SDS011;34408;51.426;5.444;2023-05-10T00:49:08;11.95;;;7.03;;
48613;SDS011;34408;51.426;5.444;2023-05-10T00:51:37;9.50;;;7.32;;
48613;SDS011;34408;51.426;5.444;2023-05-10T00:54:05;11.30;;;6.95;;
48613;SDS011;34408;51.426;5.444;2023-05-10T00:56:33;8.68;;;7.32;;
48613;SDS011;34408;51.426;5.444;2023-05-10T00:59:01;8.68;;;7.13;;
48613;SDS011;34408;51.426;5.444;2023-05-10T01:01:29;9.68;;;7.80;;
48613;SDS011;34408;51.426;5.444;2023-05-10T01:03:58;9.45;;;7.25;;
48613;SDS011;34408;51.426;5.444;2023-05-10T01:06:26;9.82;;;7.57;;
48613;SDS011;34408;51.426;5.444;2023-05-10T01:08:56;12.82;;;7.85;;
48613;SDS011;34408;51.426;5.444;2023-05-10T01:11:24;12.38;;;8.25;;
48613;SDS011;34408;51.426;5.444;2023-05-10T01:13:53;12.88;;;8.63;;
48613;SDS011;34408;51.426;5.444;2023-05-10T01:16:23;10.50;;;8.05;;
48613;SDS011;34408;51.426;5.444;2023-05-10T01:18:53;11.70;;;9.25;;
48613;SDS011;34408;51.426;5.444;2023-05-10T01:21:23;12.80;;;9.13;;
48613;SDS011;34408;51.426;5.444;2023-05-10T01:24:07;15.25;;;9.27;;
48613;SDS011;34408;51.426;5.444;2023-05-10T01:26:50;13.70;;;10.00;;
48613;SDS011;34408;51.426;5.444;2023-05-10T01:32:44;13.35;;;10.00;;
48613;SDS011;34408;51.426;5.444;2023-05-10T01:35:22;16.60;;;12.02;;
48613;SDS011;34408;51.426;5.444;2023-05-10T01:37:57;14.52;;;10.65;;
48613;SDS011;34408;51.426;5.444;2023-05-10T01:40:30;14.50;;;11.10;;
48613;SDS011;34408;51.426;5.444;2023-05-10T01:43:03;18.85;;;12.00;;
48613;SDS011;34408;51.426;5.444;2023-05-10T01:45:37;17.38;;;10.70;;
48613;SDS011;34408;51.426;5.444;2023-05-10T01:48:12;14.95;;;10.75;;
48613;SDS011;34408;51.426;5.444;2023-05-10T01:50:43;14.82;;;10.60;;
48613;SDS011;34408;51.426;5.444;2023-05-10T01:53:13;15.15;;;11.57;;
48613;SDS011;34408;51.426;5.444;2023-05-10T01:55:46;15.38;;;11.55;;
48613;SDS011;34408;51.426;5.444;2023-05-10T01:58:17;14.68;;;11.25;;
48613;SDS011;34408;51.426;5.444;2023-05-10T02:00:48;16.85;;;11.65;;
48613;SDS011;34408;51.426;5.444;2023-05-10T02:03:20;14.43;;;11.25;;
48613;SDS011;34408;51.426;5.444;2023-05-10T02:05:50;14.80;;;11.85;;
48613;SDS011;34408;51.426;5.444;2023-05-10T02:08:21;16.65;;;12.55;;
48613;SDS011;34408;51.426;5.444;2023-05-10T02:10:52;16.63;;;12.00;;
48613;SDS011;34408;51.426;5.444;2023-05-10T02:13:22;16.83;;;12.43;;
48613;SDS011;34408;51.426;5.444;2023-05-10T02:15:52;18.02;;;12.93;;
48613;SDS011;34408;51.426;5.444;2023-05-10T02:18:23;16.58;;;12.63;;
48613;SDS011;34408;51.426;5.444;2023-05-10T02:20:53;17.42;;;12.15;;
48613;SDS011;34408;51.426;5.444;2023-05-10T02:23:22;17.17;;;13.57;;
48613;SDS011;34408;51.426;5.444;2023-05-10T02:25:51;29.52;;;18.38;;
48613;SDS011;34408;51.426;5.444;2023-05-10T02:28:21;23.00;;;16.88;;
48613;SDS011;34408;51.426;5.444;2023-05-10T02:30:51;22.33;;;16.52;;
48613;SDS011;34408;51.426;5.444;2023-05-10T02:33:20;25.02;;;17.05;;
48613;SDS011;34408;51.426;5.444;2023-05-10T02:35:51;23.88;;;17.13;;
48613;SDS011;34408;51.426;5.444;2023-05-10T02:38:20;24.70;;;16.85;;
48613;SDS011;34408;51.426;5.444;2023-05-10T02:40:49;28.27;;;18.02;;
48613;SDS011;34408;51.426;5.444;2023-05-10T02:43:18;21.92;;;16.55;;
48613;SDS011;34408;51.426;5.444;2023-05-10T02:45:48;24.60;;;17.00;;
48613;SDS011;34408;51.426;5.444;2023-05-10T02:48:16;25.40;;;17.05;;
48613;SDS011;34408;51.426;5.444;2023-05-10T02:50:45;21.38;;;15.82;;
48613;SDS011;34408;51.426;5.444;2023-05-10T02:53:21;26.60;;;18.92;;
48613;SDS011;34408;51.426;5.444;2023-05-10T02:55:51;20.38;;;15.25;;
48613;SDS011;34408;51.426;5.444;2023-05-10T02:58:23;25.30;;;17.08;;
48613;SDS011;34408;51.426;5.444;2023-05-10T03:00:51;20.85;;;15.77;;
48613;SDS011;34408;51.426;5.444;2023-05-10T03:03:19;21.52;;;15.30;;
48613;SDS011;34408;51.426;5.444;2023-05-10T03:05:47;23.60;;;17.52;;
48613;SDS011;34408;51.426;5.444;2023-05-10T03:08:15;21.50;;;16.10;;
48613;SDS011;34408;51.426;5.444;2023-05-10T03:10:47;21.60;;;16.45;;
48613;SDS011;34408;51.426;5.444;2023-05-10T03:13:28;21.15;;;16.05;;
48613;SDS011;34408;51.426;5.444;2023-05-10T03:16:04;23.33;;;17.42;;
48613;SDS011;34408;51.426;5.444;2023-05-10T03:18:37;22.40;;;16.23;;
48613;SDS011;34408;51.426;5.444;2023-05-10T03:21:10;23.73;;;17.27;;
48613;SDS011;34408;51.426;5.444;2023-05-10T03:23:43;21.70;;;16.60;;
48613;SDS011;34408;51.426;5.444;2023-05-10T03:26:17;25.25;;;16.73;;
48613;SDS011;34408;51.426;5.444;2023-05-10T03:28:50;24.35;;;17.10;;
48613;SDS011;34408;51.426;5.444;2023-05-10T03:31:19;21.55;;;15.00;;
48613;SDS011;34408;51.426;5.444;2023-05-10T03:33:47;22.13;;;15.85;;
48613;SDS011;34408;51.426;5.444;2023-05-10T03:36:16;23.23;;;16.88;;
48613;SDS011;34408;51.426;5.444;2023-05-10T03:38:44;20.33;;;14.77;;
48613;SDS011;34408;51.426;5.444;2023-05-10T03:41:12;22.10;;;15.52;;
48613;SDS011;34408;51.426;5.444;2023-05-10T03:43:41;22.95;;;14.90;;
48613;SDS011;34408;51.426;5.444;2023-05-10T03:46:09;23.35;;;14.82;;
48613;SDS011;34408;51.426;5.444;2023-05-10T03:48:37;23.17;;;16.15;;
48613;SDS011;34408;51.426;5.444;2023-05-10T03:51:05;24.45;;;15.18;;
48613;SDS011;34408;51.426;5.444;2023-05-10T03:53:32;24.45;;;16.50;;
48613;SDS011;34408;51.426;5.444;2023-05-10T03:56:00;22.05;;;15.90;;
48613;SDS011;34408;51.426;5.444;2023-05-10T03:58:28;20.20;;;15.05;;
48613;SDS011;34408;51.426;5.444;2023-05-10T04:00:57;19.50;;;14.60;;
48613;SDS011;34408;51.426;5.444;2023-05-10T04:03:27;24.45;;;16.38;;
48613;SDS011;34408;51.426;5.444;2023-05-10T04:05:58;27.23;;;16.88;;
48613;SDS011;34408;51.426;5.444;2023-05-10T04:08:27;23.75;;;15.30;;
48613;SDS011;34408;51.426;5.444;2023-05-10T04:11:04;22.73;;;16.05;;
48613;SDS011;34408;51.426;5.444;2023-05-10T04:13:32;24.85;;;16.38;;
48613;SDS011;34408;51.426;5.444;2023-05-10T04:16:02;26.58;;;18.17;;
48613;SDS011;34408;51.426;5.444;2023-05-10T04:18:31;34.58;;;22.67;;
48613;SDS011;34408;51.426;5.444;2023-05-10T04:20:59;34.42;;;22.45;;
48613;SDS011;34408;51.426;5.444;2023-05-10T04:23:26;39.50;;;24.67;;
48613;SDS011;34408;51.426;5.444;2023-05-10T04:25:58;39.53;;;23.15;;
48613;SDS011;34408;51.426;5.444;2023-05-10T04:28:27;36.90;;;21.90;;
48613;SDS011;34408;51.426;5.444;2023-05-10T04:31:00;34.45;;;23.00;;
48613;SDS011;34408;51.426;5.444;2023-05-10T04:33:30;37.72;;;24.45;;
48613;SDS011;34408;51.426;5.444;2023-05-10T04:35:58;44.33;;;23.80;;
48613;SDS011;34408;51.426;5.444;2023-05-10T04:38:26;42.17;;;25.30;;
48613;SDS011;34408;51.426;5.444;2023-05-10T04:40:54;42.15;;;25.27;;
48613;SDS011;34408;51.426;5.444;2023-05-10T04:43:22;41.42;;;25.27;;
48613;SDS011;34408;51.426;5.444;2023-05-10T04:45:50;46.15;;;28.13;;
48613;SDS011;34408;51.426;5.444;2023-05-10T04:48:17;38.92;;;25.83;;
48613;SDS011;34408;51.426;5.444;2023-05-10T04:50:47;38.83;;;24.65;;
48613;SDS011;34408;51.426;5.444;2023-05-10T04:53:14;39.30;;;24.55;;
48613;SDS011;34408;51.426;5.444;2023-05-10T04:55:42;41.28;;;25.10;;
48613;SDS011;34408;51.426;5.444;2023-05-10T04:58:11;37.38;;;23.90;;
48613;SDS011;34408;51.426;5.444;2023-05-10T05:00:39;36.22;;;23.30;;
48613;SDS011;34408;51.426;5.444;2023-05-10T05:03:07;35.67;;;22.67;;
48613;SDS011;34408;51.426;5.444;2023-05-10T05:05:35;37.70;;;24.25;;
48613;SDS011;34408;51.426;5.444;2023-05-10T05:08:04;37.00;;;23.52;;
48613;SDS011;34408;51.426;5.444;2023-05-10T05:10:33;33.38;;;21.90;;
48613;SDS011;34408;51.426;5.444;2023-05-10T05:13:01;33.80;;;21.13;;
48613;SDS011;34408;51.426;5.444;2023-05-10T05:15:29;34.10;;;21.17;;
48613;SDS011;34408;51.426;5.444;2023-05-10T05:17:57;32.50;;;21.42;;
48613;SDS011;34408;51.426;5.444;2023-05-10T05:20:25;35.63;;;21.55;;
48613;SDS011;34408;51.426;5.444;2023-05-10T05:22:52;29.55;;;20.02;;
48613;SDS011;34408;51.426;5.444;2023-05-10T05:25:22;31.58;;;20.42;;
48613;SDS011;34408;51.426;5.444;2023-05-10T05:27:50;31.85;;;19.95;;
48613;SDS011;34408;51.426;5.444;2023-05-10T05:30:18;30.27;;;19.15;;
48613;SDS011;34408;51.426;5.444;2023-05-10T05:32:46;28.00;;;19.23;;
48613;SDS011;34408;51.426;5.444;2023-05-10T05:35:14;25.95;;;18.17;;
48613;SDS011;34408;51.426;5.444;2023-05-10T05:37:42;34.03;;;18.88;;
48613;SDS011;34408;51.426;5.444;2023-05-10T05:40:12;26.98;;;18.05;;
48613;SDS011;34408;51.426;5.444;2023-05-10T05:42:42;24.48;;;17.10;;
48613;SDS011;34408;51.426;5.444;2023-05-10T05:45:10;29.90;;;18.60;;
48613;SDS011;34408;51.426;5.444;2023-05-10T05:47:39;31.48;;;18.23;;
48613;SDS011;34408;51.426;5.444;2023-05-10T05:50:07;28.92;;;17.92;;
48613;SDS011;34408;51.426;5.444;2023-05-10T05:52:36;24.85;;;16.80;;
48613;SDS011;34408;51.426;5.444;2023-05-10T05:55:04;25.60;;;16.75;;
48613;SDS011;34408;51.426;5.444;2023-05-10T05:57:32;23.85;;;15.93;;
48613;SDS011;34408;51.426;5.444;2023-05-10T06:00:02;23.23;;;15.75;;
48613;SDS011;34408;51.426;5.444;2023-05-10T06:02:30;24.90;;;14.88;;
48613;SDS011;34408;51.426;5.444;2023-05-10T06:04:58;24.25;;;15.38;;
48613;SDS011;34408;51.426;5.444;2023-05-10T06:07:26;23.20;;;15.82;;
48613;SDS011;34408;51.426;5.444;2023-05-10T06:09:54;18.40;;;14.00;;
48613;SDS011;34408;51.426;5.444;2023-05-10T06:12:21;19.38;;;13.75;;
48613;SDS011;34408;51.426;5.444;2023-05-10T06:14:50;20.63;;;13.82;;
48613;SDS011;34408;51.426;5.444;2023-05-10T06:17:19;18.48;;;12.82;;
48613;SDS011;34408;51.426;5.444;2023-05-10T06:19:47;21.23;;;14.07;;
48613;SDS011;34408;51.426;5.444;2023-05-10T06:22:16;19.80;;;13.00;;
48613;SDS011;34408;51.426;5.444;2023-05-10T06:24:44;25.27;;;14.95;;
48613;SDS011;34408;51.426;5.444;2023-05-10T06:27:12;21.15;;;13.98;;
48613;SDS011;34408;51.426;5.444;2023-05-10T06:29:40;20.75;;;12.45;;
48613;SDS011;34408;51.426;5.444;2023-05-10T06:32:07;18.13;;;13.23;;
48613;SDS011;34408;51.426;5.444;2023-05-10T06:34:37;18.63;;;13.95;;
48613;SDS011;34408;51.426;5.444;2023-05-10T06:37:04;18.80;;;12.90;;
48613;SDS011;34408;51.426;5.444;2023-05-10T06:39:33;17.73;;;12.43;;
48613;SDS011;34408;51.426;5.444;2023-05-10T06:42:01;18.45;;;12.45;;
48613;SDS011;34408;51.426;5.444;2023-05-10T06:44:29;20.98;;;12.48;;
48613;SDS011;34408;51.426;5.444;2023-05-10T06:46:56;16.55;;;12.48;;
48613;SDS011;34408;51.426;5.444;2023-05-10T06:49:24;17.02;;;12.10;;
48613;SDS011;34408;51.426;5.444;2023-05-10T06:51:54;17.67;;;12.63;;
48613;SDS011;34408;51.426;5.444;2023-05-10T06:54:22;18.42;;;12.57;;
48613;SDS011;34408;51.426;5.444;2023-05-10T06:56:50;19.15;;;12.38;;
48613;SDS011;34408;51.426;5.444;2023-05-10T06:59:18;17.83;;;11.63;;
48613;SDS011;34408;51.426;5.444;2023-05-10T07:01:47;20.13;;;13.35;;
48613;SDS011;34408;51.426;5.444;2023-05-10T07:04:15;19.27;;;13.52;;
48613;SDS011;34408;51.426;5.444;2023-05-10T07:06:43;15.70;;;11.45;;
48613;SDS011;34408;51.426;5.444;2023-05-10T07:09:13;18.17;;;12.85;;
48613;SDS011;34408;51.426;5.444;2023-05-10T07:11:41;22.38;;;13.18;;
48613;SDS011;34408;51.426;5.444;2023-05-10T07:14:09;20.55;;;13.38;;
48613;SDS011;34408;51.426;5.444;2023-05-10T07:16:37;17.05;;;12.07;;
48613;SDS011;34408;51.426;5.444;2023-05-10T07:19:05;16.98;;;11.80;;
48613;SDS011;34408;51.426;5.444;2023-05-10T07:21:33;19.05;;;11.77;;
48613;SDS011;34408;51.426;5.444;2023-05-10T07:24:02;23.50;;;15.40;;
48613;SDS011;34408;51.426;5.444;2023-05-10T07:26:31;24.08;;;15.02;;
48613;SDS011;34408;51.426;5.444;2023-05-10T07:28:59;25.13;;;14.63;;
48613;SDS011;34408;51.426;5.444;2023-05-10T07:31:27;21.55;;;13.02;;
48613;SDS011;34408;51.426;5.444;2023-05-10T07:33:55;23.05;;;13.38;;
48613;SDS011;34408;51.426;5.444;2023-05-10T07:36:23;17.45;;;12.82;;
48613;SDS011;34408;51.426;5.444;2023-05-10T07:38:51;23.30;;;11.68;;
48613;SDS011;34408;51.426;5.444;2023-05-10T07:41:19;20.45;;;11.45;;
48613;SDS011;34408;51.426;5.444;2023-05-10T07:43:48;20.45;;;10.48;;
48613;SDS011;34408;51.426;5.444;2023-05-10T07:46:16;17.77;;;10.95;;
48613;SDS011;34408;51.426;5.444;2023-05-10T07:48:45;15.30;;;10.27;;
48613;SDS011;34408;51.426;5.444;2023-05-10T07:51:13;16.92;;;9.52;;
48613;SDS011;34408;51.426;5.444;2023-05-10T07:53:41;13.23;;;9.45;;
48613;SDS011;34408;51.426;5.444;2023-05-10T07:56:22;16.85;;;8.20;;
48613;SDS011;34408;51.426;5.444;2023-05-10T07:58:55;13.20;;;7.25;;
48613;SDS011;34408;51.426;5.444;2023-05-10T08:01:23;12.13;;;7.47;;
48613;SDS011;34408;51.426;5.444;2023-05-10T08:03:51;12.90;;;7.68;;
48613;SDS011;34408;51.426;5.444;2023-05-10T08:06:19;14.73;;;6.97;;
48613;SDS011;34408;51.426;5.444;2023-05-10T08:08:48;12.25;;;7.72;;
48613;SDS011;34408;51.426;5.444;2023-05-10T08:11:17;11.63;;;6.70;;
48613;SDS011;34408;51.426;5.444;2023-05-10T08:13:45;9.63;;;6.45;;
48613;SDS011;34408;51.426;5.444;2023-05-10T08:16:14;13.88;;;6.45;;
48613;SDS011;34408;51.426;5.444;2023-05-10T08:18:43;10.70;;;6.70;;
48613;SDS011;34408;51.426;5.444;2023-05-10T08:21:13;9.57;;;6.47;;
48613;SDS011;34408;51.426;5.444;2023-05-10T08:23:41;10.68;;;6.18;;
48613;SDS011;34408;51.426;5.444;2023-05-10T08:26:10;11.55;;;5.10;;
48613;SDS011;34408;51.426;5.444;2023-05-10T08:28:38;14.75;;;6.50;;
48613;SDS011;34408;51.426;5.444;2023-05-10T08:31:06;10.65;;;5.47;;
48613;SDS011;34408;51.426;5.444;2023-05-10T08:33:35;12.18;;;5.65;;
48613;SDS011;34408;51.426;5.444;2023-05-10T08:36:03;10.32;;;5.65;;
48613;SDS011;34408;51.426;5.444;2023-05-10T08:38:31;14.63;;;6.35;;
48613;SDS011;34408;51.426;5.444;2023-05-10T08:40:59;8.30;;;5.75;;
48613;SDS011;34408;51.426;5.444;2023-05-10T08:43:29;14.05;;;4.82;;
48613;SDS011;34408;51.426;5.444;2023-05-10T08:45:59;9.27;;;4.63;;
48613;SDS011;34408;51.426;5.444;2023-05-10T08:48:29;8.35;;;4.65;;
48613;SDS011;34408;51.426;5.444;2023-05-10T08:50:59;10.00;;;4.28;;
48613;SDS011;34408;51.426;5.444;2023-05-10T08:53:28;9.02;;;4.03;;
48613;SDS011;34408;51.426;5.444;2023-05-10T08:55:58;9.82;;;4.15;;
48613;SDS011;34408;51.426;5.444;2023-05-10T08:58:26;8.90;;;3.90;;
48613;SDS011;34408;51.426;5.444;2023-05-10T09:00:54;9.57;;;4.57;;
48613;SDS011;34408;51.426;5.444;2023-05-10T09:03:22;7.72;;;3.80;;
48613;SDS011;34408;51.426;5.444;2023-05-10T09:05:50;4.80;;;3.17;;
48613;SDS011;34408;51.426;5.444;2023-05-10T09:08:19;7.47;;;4.32;;
48613;SDS011;34408;51.426;5.444;2023-05-10T09:10:47;11.40;;;3.38;;
48613;SDS011;34408;51.426;5.444;2023-05-10T09:13:16;4.88;;;3.10;;
48613;SDS011;34408;51.426;5.444;2023-05-10T09:15:45;4.93;;;3.33;;
48613;SDS011;34408;51.426;5.444;2023-05-10T09:18:14;6.10;;;3.45;;
48613;SDS011;34408;51.426;5.444;2023-05-10T09:20:42;5.63;;;3.20;;
48613;SDS011;34408;51.426;5.444;2023-05-10T09:23:10;5.47;;;3.35;;
48613;SDS011;34408;51.426;5.444;2023-05-10T09:25:39;4.20;;;2.75;;
48613;SDS011;34408;51.426;5.444;2023-05-10T09:28:09;10.80;;;4.20;;
48613;SDS011;34408;51.426;5.444;2023-05-10T09:30:37;8.93;;;3.42;;
48613;SDS011;34408;51.426;5.444;2023-05-10T09:33:05;5.20;;;3.05;;
48613;SDS011;34408;51.426;5.444;2023-05-10T09:35:34;4.82;;;2.78;;
48613;SDS011;34408;51.426;5.444;2023-05-10T09:38:02;8.13;;;3.05;;
48613;SDS011;34408;51.426;5.444;2023-05-10T09:40:31;5.47;;;2.92;;
48613;SDS011;34408;51.426;5.444;2023-05-10T09:43:01;9.20;;;3.20;;
48613;SDS011;34408;51.426;5.444;2023-05-10T09:45:30;7.18;;;3.47;;
48613;SDS011;34408;51.426;5.444;2023-05-10T09:48:02;6.13;;;3.10;;
48613;SDS011;34408;51.426;5.444;2023-05-10T09:50:31;6.65;;;3.75;;
48613;SDS011;34408;51.426;5.444;2023-05-10T09:53:00;6.43;;;3.05;;
48613;SDS011;34408;51.426;5.444;2023-05-10T09:55:38;5.85;;;2.67;;
48613;SDS011;34408;51.426;5.444;2023-05-10T09:58:08;7.32;;;3.30;;
48613;SDS011;34408;51.426;5.444;2023-05-10T10:00:37;5.85;;;3.40;;
48613;SDS011;34408;51.426;5.444;2023-05-10T10:03:06;4.88;;;3.00;;
48613;SDS011;34408;51.426;5.444;2023-05-10T10:05:40;6.55;;;3.03;;
48613;SDS011;34408;51.426;5.444;2023-05-10T10:08:08;5.93;;;4.18;;
48613;SDS011;34408;51.426;5.444;2023-05-10T10:10:36;7.57;;;4.65;;
48613;SDS011;34408;51.426;5.444;2023-05-10T10:13:08;7.72;;;4.72;;
48613;SDS011;34408;51.426;5.444;2023-05-10T10:15:37;7.97;;;3.95;;
48613;SDS011;34408;51.426;5.444;2023-05-10T10:18:05;6.50;;;3.60;;
48613;SDS011;34408;51.426;5.444;2023-05-10T10:20:34;5.50;;;3.42;;
48613;SDS011;34408;51.426;5.444;2023-05-10T10:23:04;7.10;;;4.18;;
48613;SDS011;34408;51.426;5.444;2023-05-10T10:25:32;5.93;;;3.90;;
48613;SDS011;34408;51.426;5.444;2023-05-10T10:28:05;5.90;;;3.80;;
48613;SDS011;34408;51.426;5.444;2023-05-10T10:30:45;5.05;;;3.00;;
48613;SDS011;34408;51.426;5.444;2023-05-10T10:36:19;7.00;;;3.50;;
48613;SDS011;34408;51.426;5.444;2023-05-10T10:38:55;5.57;;;3.20;;
48613;SDS011;34408;51.426;5.444;2023-05-10T10:41:30;4.22;;;2.88;;
48613;SDS011;34408;51.426;5.444;2023-05-10T10:47:00;6.57;;;4.65;;
48613;SDS011;34408;51.426;5.444;2023-05-10T10:49:32;7.60;;;5.22;;
48613;SDS011;34408;51.426;5.444;2023-05-10T10:52:13;6.70;;;4.85;;
48613;SDS011;34408;51.426;5.444;2023-05-10T10:54:53;7.03;;;4.93;;
48613;SDS011;34408;51.426;5.444;2023-05-10T10:57:26;9.75;;;5.35;;
48613;SDS011;34408;51.426;5.444;2023-05-10T11:02:49;8.20;;;5.55;;
48613;SDS011;34408;51.426;5.444;2023-05-10T11:05:24;6.60;;;5.20;;
48613;SDS011;34408;51.426;5.444;2023-05-10T11:08:06;7.70;;;5.65;;
48613;SDS011;34408;51.426;5.444;2023-05-10T11:10:36;8.20;;;5.70;;
48613;SDS011;34408;51.426;5.444;2023-05-10T11:13:04;10.05;;;6.93;;
48613;SDS011;34408;51.426;5.444;2023-05-10T11:15:35;8.73;;;6.25;;
48613;SDS011;34408;51.426;5.444;2023-05-10T11:18:17;11.30;;;6.07;;
48613;SDS011;34408;51.426;5.444;2023-05-10T11:20:50;10.32;;;5.93;;
48613;SDS011;34408;51.426;5.444;2023-05-10T11:23:18;9.10;;;5.80;;
48613;SDS011;34408;51.426;5.444;2023-05-10T11:25:48;9.35;;;5.40;;
48613;SDS011;34408;51.426;5.444;2023-05-10T11:28:17;11.73;;;7.22;;
48613;SDS011;34408;51.426;5.444;2023-05-10T11:30:47;10.52;;;6.68;;
48613;SDS011;34408;51.426;5.444;2023-05-10T11:33:15;13.25;;;7.40;;
48613;SDS011;34408;51.426;5.444;2023-05-10T11:35:45;10.05;;;7.10;;
48613;SDS011;34408;51.426;5.444;2023-05-10T11:38:13;11.85;;;7.57;;
48613;SDS011;34408;51.426;5.444;2023-05-10T11:40:41;7.93;;;6.22;;
48613;SDS011;34408;51.426;5.444;2023-05-10T11:43:10;10.75;;;7.32;;
48613;SDS011;34408;51.426;5.444;2023-05-10T11:45:39;9.60;;;6.55;;
48613;SDS011;34408;51.426;5.444;2023-05-10T11:48:11;12.98;;;6.53;;
48613;SDS011;34408;51.426;5.444;2023-05-10T11:50:39;11.93;;;6.82;;
48613;SDS011;34408;51.426;5.444;2023-05-10T11:53:06;10.30;;;7.00;;
48613;SDS011;34408;51.426;5.444;2023-05-10T11:55:34;11.68;;;8.18;;
48613;SDS011;34408;51.426;5.444;2023-05-10T11:58:02;16.42;;;10.52;;
48613;SDS011;34408;51.426;5.444;2023-05-10T12:00:30;10.82;;;8.10;;
48613;SDS011;34408;51.426;5.444;2023-05-10T12:03:00;10.88;;;8.27;;
48613;SDS011;34408;51.426;5.444;2023-05-10T12:05:32;10.70;;;8.35;;
48613;SDS011;34408;51.426;5.444;2023-05-10T12:08:13;16.30;;;9.73;;
48613;SDS011;34408;51.426;5.444;2023-05-10T12:10:41;12.77;;;9.23;;
48613;SDS011;34408;51.426;5.444;2023-05-10T12:13:12;15.13;;;10.43;;
48613;SDS011;34408;51.426;5.444;2023-05-10T12:15:41;17.75;;;9.98;;
48613;SDS011;34408;51.426;5.444;2023-05-10T12:18:10;12.13;;;8.50;;
48613;SDS011;34408;51.426;5.444;2023-05-10T12:20:40;12.10;;;8.57;;
48613;SDS011;34408;51.426;5.444;2023-05-10T12:23:09;14.52;;;9.07;;
48613;SDS011;34408;51.426;5.444;2023-05-10T12:25:37;15.80;;;9.48;;
48613;SDS011;34408;51.426;5.444;2023-05-10T12:28:06;13.75;;;9.85;;
48613;SDS011;34408;51.426;5.444;2023-05-10T12:30:36;16.27;;;10.95;;
48613;SDS011;34408;51.426;5.444;2023-05-10T12:33:07;17.90;;;10.68;;
48613;SDS011;34408;51.426;5.444;2023-05-10T12:35:47;16.67;;;11.30;;
48613;SDS011;34408;51.426;5.444;2023-05-10T12:38:25;15.68;;;11.02;;
48613;SDS011;34408;51.426;5.444;2023-05-10T12:40:56;21.33;;;10.77;;
48613;SDS011;34408;51.426;5.444;2023-05-10T12:43:25;14.80;;;9.40;;
48613;SDS011;34408;51.426;5.444;2023-05-10T12:45:53;9.05;;;6.70;;
48613;SDS011;34408;51.426;5.444;2023-05-10T12:48:21;8.43;;;5.97;;
48613;SDS011;34408;51.426;5.444;2023-05-10T12:50:50;10.57;;;5.80;;
48613;SDS011;34408;51.426;5.444;2023-05-10T12:53:18;6.88;;;5.03;;
48613;SDS011;34408;51.426;5.444;2023-05-10T12:55:46;7.75;;;4.05;;
48613;SDS011;34408;51.426;5.444;2023-05-10T12:58:14;7.90;;;4.78;;
48613;SDS011;34408;51.426;5.444;2023-05-10T13:01:00;10.75;;;5.53;;
48613;SDS011;34408;51.426;5.444;2023-05-10T13:03:28;7.65;;;5.28;;
48613;SDS011;34408;51.426;5.444;2023-05-10T13:05:58;9.65;;;5.00;;
48613;SDS011;34408;51.426;5.444;2023-05-10T13:08:26;6.10;;;4.38;;
48613;SDS011;34408;51.426;5.444;2023-05-10T13:10:55;12.65;;;5.47;;
48613;SDS011;34408;51.426;5.444;2023-05-10T13:13:23;7.97;;;5.07;;
48613;SDS011;34408;51.426;5.444;2023-05-10T13:15:51;9.57;;;5.30;;
48613;SDS011;34408;51.426;5.444;2023-05-10T13:18:19;10.00;;;5.22;;
48613;SDS011;34408;51.426;5.444;2023-05-10T13:20:47;7.38;;;5.35;;
48613;SDS011;34408;51.426;5.444;2023-05-10T13:23:17;8.75;;;5.75;;
48613;SDS011;34408;51.426;5.444;2023-05-10T13:25:45;9.05;;;6.20;;
48613;SDS011;34408;51.426;5.444;2023-05-10T13:28:12;8.68;;;5.35;;
48613;SDS011;34408;51.426;5.444;2023-05-10T13:30:40;8.63;;;5.80;;
48613;SDS011;34408;51.426;5.444;2023-05-10T13:33:08;7.70;;;6.15;;
48613;SDS011;34408;51.426;5.444;2023-05-10T13:35:36;10.48;;;6.85;;
48613;SDS011;34408;51.426;5.444;2023-05-10T13:38:04;12.02;;;7.38;;
48613;SDS011;34408;51.426;5.444;2023-05-10T13:40:35;12.48;;;8.70;;
48613;SDS011;34408;51.426;5.444;2023-05-10T13:43:03;13.00;;;9.75;;
48613;SDS011;34408;51.426;5.444;2023-05-10T13:45:31;15.37;;;10.50;;
48613;SDS011;34408;51.426;5.444;2023-05-10T13:47:59;12.65;;;9.90;;
48613;SDS011;34408;51.426;5.444;2023-05-10T13:50:27;13.95;;;9.32;;
48613;SDS011;34408;51.426;5.444;2023-05-10T13:52:55;14.30;;;9.60;;
48613;SDS011;34408;51.426;5.444;2023-05-10T13:55:22;13.18;;;8.98;;
48613;SDS011;34408;51.426;5.444;2023-05-10T13:57:52;14.48;;;7.88;;
48613;SDS011;34408;51.426;5.444;2023-05-10T14:00:19;13.20;;;7.97;;
48613;SDS011;34408;51.426;5.444;2023-05-10T14:02:47;13.68;;;7.90;;
48613;SDS011;34408;51.426;5.444;2023-05-10T14:05:15;13.75;;;6.75;;
48613;SDS011;34408;51.426;5.444;2023-05-10T14:07:47;9.75;;;5.72;;
48613;SDS011;34408;51.426;5.444;2023-05-10T14:10:15;10.90;;;5.65;;
48613;SDS011;34408;51.426;5.444;2023-05-10T14:12:43;8.43;;;5.35;;
48613;SDS011;34408;51.426;5.444;2023-05-10T14:15:12;10.77;;;5.07;;
48613;SDS011;34408;51.426;5.444;2023-05-10T14:17:40;7.90;;;5.07;;
48613;SDS011;34408;51.426;5.444;2023-05-10T14:20:08;6.70;;;4.00;;
48613;SDS011;34408;51.426;5.444;2023-05-10T14:22:37;6.90;;;3.88;;
48613;SDS011;34408;51.426;5.444;2023-05-10T14:25:05;8.30;;;3.88;;
48613;SDS011;34408;51.426;5.444;2023-05-10T14:27:33;7.07;;;3.85;;
48613;SDS011;34408;51.426;5.444;2023-05-10T14:30:01;11.80;;;3.65;;
48613;SDS011;34408;51.426;5.444;2023-05-10T14:32:30;6.32;;;3.67;;
48613;SDS011;34408;51.426;5.444;2023-05-10T14:34:58;4.32;;;2.63;;
48613;SDS011;34408;51.426;5.444;2023-05-10T14:37:26;4.88;;;3.00;;
48613;SDS011;34408;51.426;5.444;2023-05-10T14:39:54;5.70;;;3.10;;
48613;SDS011;34408;51.426;5.444;2023-05-10T14:42:22;4.53;;;2.67;;
48613;SDS011;34408;51.426;5.444;2023-05-10T14:44:50;5.70;;;3.38;;
48613;SDS011;34408;51.426;5.444;2023-05-10T14:47:18;6.25;;;3.40;;
48613;SDS011;34408;51.426;5.444;2023-05-10T14:49:47;8.50;;;3.55;;
48613;SDS011;34408;51.426;5.444;2023-05-10T14:52:15;10.68;;;4.00;;
48613;SDS011;34408;51.426;5.444;2023-05-10T14:54:43;6.72;;;4.05;;
48613;SDS011;34408;51.426;5.444;2023-05-10T14:57:11;8.30;;;4.35;;
48613;SDS011;34408;51.426;5.444;2023-05-10T14:59:39;11.10;;;4.70;;